Time;durP1;ratioP1;P1;durP2;ratioP2;P2;SDS_P1;SDS_P2;PMS_P1;PMS_P2;Temp;Humidity;BMP_temperature;BMP_pressure;BME280_temperature;BME280_humidity;BME280_pressure;Samples;Min_cycle;Max_cycle;Signal;HPM_P1;HPM_P2
2021/08/14 00:01:14;;;;;;;10.03;8.20;;;20.90;99.90;;;;;;4950037;28;20195;-59
2021/08/14 00:03:39;;;;;;;9.20;8.30;;;20.80;99.90;;;;;;4947570;29;20196;-59
2021/08/14 00:06:05;;;;;;;8.60;7.80;;;20.80;99.90;;;;;;4955671;28;20236;-61
2021/08/14 00:08:30;;;;;;;9.17;7.90;;;20.80;99.90;;;;;;4955367;28;20486;-58
2021/08/14 00:10:56;;;;;;;9.97;8.37;;;20.70;99.90;;;;;;4954946;28;20628;-59
2021/08/14 00:13:22;;;;;;;8.27;7.57;;;20.60;99.90;;;;;;4955438;29;20686;-60
2021/08/14 00:15:47;;;;;;;8.47;7.60;;;20.60;99.90;;;;;;4955048;28;20221;-61
2021/08/14 00:18:13;;;;;;;9.00;8.10;;;20.60;99.90;;;;;;4946109;28;20359;-59
2021/08/14 00:20:39;;;;;;;8.80;8.00;;;20.50;99.90;;;;;;4952077;29;20733;-60
2021/08/14 00:23:04;;;;;;;8.53;7.73;;;20.50;99.90;;;;;;4954980;28;20192;-58
2021/08/14 00:25:30;;;;;;;9.20;8.40;;;20.40;99.90;;;;;;4954675;28;20216;-60
2021/08/14 00:27:56;;;;;;;8.83;8.03;;;20.40;99.90;;;;;;4955273;28;20185;-59
2021/08/14 00:30:22;;;;;;;8.70;7.80;;;20.30;99.90;;;;;;4954967;28;20805;-58
2021/08/14 00:32:48;;;;;;;9.10;8.30;;;20.30;99.90;;;;;;4953541;28;20647;-59
2021/08/14 00:35:14;;;;;;;10.30;8.50;;;20.20;99.90;;;;;;4953804;29;20212;-58
2021/08/14 00:37:39;;;;;;;8.97;8.10;;;20.20;99.90;;;;;;4951791;28;20277;-58
2021/08/14 00:40:06;;;;;;;9.20;8.40;;;20.10;99.90;;;;;;4953129;28;20193;-60
2021/08/14 00:42:32;;;;;;;10.18;8.80;;;20.00;99.90;;;;;;4954676;28;20693;-59
2021/08/14 00:44:58;;;;;;;10.30;8.77;;;19.90;99.90;;;;;;4954907;28;20188;-60
2021/08/14 00:47:27;;;;;;;9.73;8.73;;;19.80;99.90;;;;;;4957454;28;20291;-60
2021/08/14 00:49:54;;;;;;;10.30;9.40;;;19.70;99.90;;;;;;4954278;28;20188;-59
2021/08/14 00:52:20;;;;;;;9.45;7.65;;;19.70;99.90;;;;;;4954673;29;20269;-60
2021/08/14 00:54:46;;;;;;;8.05;7.32;;;19.70;99.90;;;;;;4953716;28;20280;-60
2021/08/14 00:57:13;;;;;;;9.30;8.47;;;19.70;99.90;;;;;;4953555;28;20209;-58
2021/08/14 00:59:39;;;;;;;9.15;8.20;;;19.60;99.90;;;;;;4954436;28;20185;-59
2021/08/14 01:02:06;;;;;;;8.45;7.65;;;19.70;99.90;;;;;;4959181;28;20196;-59
2021/08/14 01:04:32;;;;;;;8.30;7.50;;;19.70;99.90;;;;;;4954062;29;20272;-58
2021/08/14 01:06:59;;;;;;;8.90;8.10;;;19.70;99.90;;;;;;4953662;28;20308;-58
2021/08/14 01:09:29;;;;;;;9.27;7.90;;;19.60;99.90;;;;;;4953153;28;20548;-60
2021/08/14 01:11:56;;;;;;;10.70;7.97;;;19.60;99.90;;;;;;4953761;28;20185;-58
2021/08/14 01:14:22;;;;;;;8.73;7.88;;;19.60;99.90;;;;;;4954332;28;20189;-59
2021/08/14 01:16:48;;;;;;;10.63;7.85;;;19.60;99.90;;;;;;4953606;28;20200;-60
2021/08/14 01:19:18;;;;;;;8.93;7.97;;;19.60;99.90;;;;;;4952185;28;20243;-61
2021/08/14 01:21:50;;;;;;;8.95;7.72;;;19.60;99.90;;;;;;4953505;28;20192;-59
2021/08/14 01:24:16;;;;;;;9.05;8.05;;;19.60;99.90;;;;;;4952960;28;20189;-58
2021/08/14 01:26:43;;;;;;;9.03;8.20;;;19.60;99.90;;;;;;4953553;28;20298;-60
2021/08/14 01:29:09;;;;;;;8.32;7.55;;;19.60;99.90;;;;;;4953848;28;20195;-58
2021/08/14 01:31:35;;;;;;;9.27;8.37;;;19.50;99.90;;;;;;4954096;28;20188;-58
2021/08/14 01:34:00;;;;;;;8.43;7.50;;;19.50;99.90;;;;;;4953476;28;20834;-57
2021/08/14 01:36:26;;;;;;;9.30;8.40;;;19.50;99.90;;;;;;4953064;28;20840;-58
2021/08/14 01:38:57;;;;;;;9.30;8.40;;;19.40;99.90;;;;;;4951976;28;20240;-58
2021/08/14 01:41:23;;;;;;;10.00;8.13;;;19.40;99.90;;;;;;4952183;28;20267;-57
2021/08/14 01:43:56;;;;;;;9.50;8.60;;;19.40;99.90;;;;;;4953849;28;20539;-57
2021/08/14 01:46:23;;;;;;;8.20;7.45;;;19.40;99.90;;;;;;4953522;28;20209;-57
2021/08/14 01:48:49;;;;;;;9.02;8.13;;;19.30;99.90;;;;;;4956315;28;20224;-56
2021/08/14 01:51:15;;;;;;;9.23;8.37;;;19.30;99.90;;;;;;4953390;28;20224;-58
2021/08/14 01:53:51;;;;;;;8.30;7.57;;;19.30;99.90;;;;;;4953678;28;20440;-58
2021/08/14 01:56:18;;;;;;;9.10;8.30;;;19.30;99.90;;;;;;4950350;28;20295;-57
2021/08/14 01:58:44;;;;;;;7.75;7.15;;;19.30;99.90;;;;;;4953029;28;20181;-57
2021/08/14 02:01:10;;;;;;;8.77;7.87;;;19.30;99.90;;;;;;4952045;28;20196;-58
2021/08/14 02:03:36;;;;;;;8.57;7.80;;;19.30;99.90;;;;;;4951840;28;20185;-58
2021/08/14 02:06:03;;;;;;;9.18;8.27;;;19.20;99.90;;;;;;4951925;28;20255;-57
2021/08/14 02:08:29;;;;;;;8.95;8.15;;;19.20;99.90;;;;;;4950023;28;20207;-56
2021/08/14 02:10:55;;;;;;;8.57;7.88;;;19.20;99.90;;;;;;4953005;28;20661;-59
2021/08/14 02:13:21;;;;;;;14.03;8.57;;;19.20;99.90;;;;;;4953750;28;20201;-57
2021/08/14 02:15:46;;;;;;;9.47;8.53;;;19.10;99.90;;;;;;4952875;28;20220;-56
2021/08/14 02:18:12;;;;;;;8.13;6.90;;;19.00;99.90;;;;;;4950458;28;20686;-58
2021/08/14 02:20:38;;;;;;;9.40;8.60;;;19.10;99.90;;;;;;4951528;28;20272;-57
2021/08/14 02:23:04;;;;;;;9.00;8.10;;;19.00;99.90;;;;;;4953139;28;20197;-57
2021/08/14 02:25:29;;;;;;;9.30;8.50;;;19.00;99.90;;;;;;4946966;28;20268;-57
2021/08/14 02:27:55;;;;;;;9.00;8.20;;;19.00;99.90;;;;;;4953070;28;20435;-58
2021/08/14 02:30:21;;;;;;;8.43;7.63;;;19.00;99.90;;;;;;4952597;28;20276;-57
2021/08/14 02:32:47;;;;;;;10.63;8.90;;;19.10;99.90;;;;;;4953056;28;20193;-57
2021/08/14 02:35:13;;;;;;;9.43;8.35;;;19.00;99.90;;;;;;4952059;28;20531;-58
2021/08/14 02:37:39;;;;;;;10.40;8.30;;;19.00;99.90;;;;;;4952061;28;20185;-59
2021/08/14 02:40:08;;;;;;;8.90;8.10;;;19.00;99.90;;;;;;4950796;28;20192;-58
2021/08/14 02:42:40;;;;;;;8.98;7.90;;;19.00;99.90;;;;;;4952518;28;20448;-56
2021/08/14 02:45:07;;;;;;;10.73;8.27;;;19.00;99.90;;;;;;4952841;28;20672;-58
2021/08/14 02:47:33;;;;;;;8.90;7.32;;;19.00;99.90;;;;;;4955422;28;20224;-57
2021/08/14 02:49:59;;;;;;;10.10;7.10;;;19.00;99.90;;;;;;4952034;28;20185;-57
2021/08/14 02:52:24;;;;;;;8.10;7.40;;;19.00;99.90;;;;;;4952880;28;20444;-58
2021/08/14 02:54:50;;;;;;;8.40;7.63;;;19.00;99.90;;;;;;4950736;28;20705;-58
2021/08/14 02:57:16;;;;;;;8.77;7.97;;;18.90;99.90;;;;;;4950248;29;20569;-58
2021/08/14 02:59:41;;;;;;;8.70;7.80;;;18.90;99.90;;;;;;4951059;28;20256;-57
2021/08/14 03:02:07;;;;;;;10.03;8.37;;;18.80;99.90;;;;;;4952162;28;20271;-58
2021/08/14 03:04:32;;;;;;;8.77;8.03;;;18.90;99.90;;;;;;4951090;28;20193;-58
2021/08/14 03:06:58;;;;;;;8.90;8.10;;;18.90;99.90;;;;;;4952538;28;20197;-59
2021/08/14 03:09:24;;;;;;;9.03;8.13;;;18.80;99.90;;;;;;4952475;28;20188;-57
2021/08/14 03:11:50;;;;;;;8.50;7.80;;;18.80;99.90;;;;;;4951726;28;20189;-58
2021/08/14 03:14:15;;;;;;;10.33;8.27;;;18.80;99.90;;;;;;4952458;28;20922;-57
2021/08/14 03:16:41;;;;;;;7.93;7.33;;;18.80;99.90;;;;;;4951790;28;20224;-58
2021/08/14 03:19:07;;;;;;;8.57;7.80;;;18.70;99.90;;;;;;4950346;28;20192;-57
2021/08/14 03:21:32;;;;;;;9.03;8.23;;;18.70;99.90;;;;;;4951341;28;20185;-56
2021/08/14 03:23:58;;;;;;;9.50;8.70;;;18.70;99.90;;;;;;4952485;28;20185;-58
2021/08/14 03:26:25;;;;;;;10.27;9.20;;;18.60;99.90;;;;;;4939638;28;20224;-58
2021/08/14 03:28:51;;;;;;;9.13;8.20;;;18.60;99.90;;;;;;4952526;28;20185;-56
2021/08/14 03:31:20;;;;;;;10.27;8.70;;;18.60;99.90;;;;;;4956206;28;20188;-57
2021/08/14 03:33:46;;;;;;;10.05;9.15;;;18.60;99.90;;;;;;4955805;28;20192;-57
2021/08/14 03:36:12;;;;;;;9.27;8.07;;;18.60;99.90;;;;;;4955446;28;20380;-57
2021/08/14 03:38:38;;;;;;;9.73;8.27;;;18.60;99.90;;;;;;4954531;28;20291;-57
2021/08/14 03:41:05;;;;;;;9.00;8.20;;;18.50;99.90;;;;;;4954231;28;20280;-57
2021/08/14 03:43:31;;;;;;;8.35;7.65;;;18.50;99.90;;;;;;4956094;28;20742;-58
2021/08/14 03:45:56;;;;;;;9.20;8.30;;;18.60;99.90;;;;;;4954503;28;20299;-58
2021/08/14 03:48:22;;;;;;;9.30;8.50;;;18.60;99.90;;;;;;4958326;28;20432;-56
2021/08/14 03:50:47;;;;;;;8.70;7.83;;;18.50;99.90;;;;;;4955527;28;20488;-57
2021/08/14 03:53:13;;;;;;;8.93;8.13;;;18.50;99.90;;;;;;4955953;28;20543;-58
2021/08/14 03:55:39;;;;;;;9.27;8.47;;;18.50;99.90;;;;;;4952891;28;20290;-57
2021/08/14 03:58:05;;;;;;;8.77;7.97;;;18.50;99.90;;;;;;4954268;28;20192;-57
2021/08/14 04:00:30;;;;;;;8.50;7.67;;;18.50;99.90;;;;;;4949962;29;20184;-57
2021/08/14 04:02:56;;;;;;;9.00;8.20;;;18.40;99.90;;;;;;4947176;29;20203;-58
2021/08/14 04:05:22;;;;;;;10.13;8.40;;;18.40;99.90;;;;;;4954007;29;20447;-57
2021/08/14 04:07:48;;;;;;;8.93;8.10;;;18.50;99.90;;;;;;4951007;28;20189;-57
2021/08/14 04:10:14;;;;;;;9.75;8.48;;;18.40;99.90;;;;;;4954784;28;20193;-58
2021/08/14 04:12:39;;;;;;;8.70;7.90;;;18.20;99.90;;;;;;4954342;28;20203;-57
2021/08/14 04:15:06;;;;;;;11.40;8.93;;;18.40;99.90;;;;;;4955269;28;20209;-58
2021/08/14 04:17:32;;;;;;;9.13;8.32;;;18.40;99.90;;;;;;4954691;28;20562;-57
2021/08/14 04:19:59;;;;;;;9.45;8.55;;;18.40;99.90;;;;;;4946422;28;20225;-60
2021/08/14 04:22:29;;;;;;;9.52;8.50;;;18.40;99.90;;;;;;4953330;28;20188;-57
2021/08/14 04:24:55;;;;;;;9.57;8.68;;;18.40;99.90;;;;;;4953476;29;20313;-56
2021/08/14 04:27:21;;;;;;;10.43;7.70;;;18.40;99.90;;;;;;4954767;28;20263;-58
2021/08/14 04:29:47;;;;;;;9.03;8.30;;;18.30;99.90;;;;;;4955258;28;20196;-56
2021/08/14 04:32:12;;;;;;;8.50;7.80;;;18.30;99.90;;;;;;4954184;28;20444;-56
2021/08/14 04:34:38;;;;;;;9.03;8.13;;;18.30;99.90;;;;;;4952849;28;20209;-56
2021/08/14 04:37:04;;;;;;;9.47;8.30;;;18.30;99.90;;;;;;4949198;28;20215;-56
2021/08/14 04:39:29;;;;;;;9.30;8.40;;;18.30;99.90;;;;;;4953847;28;20193;-56
2021/08/14 04:41:55;;;;;;;9.57;8.63;;;18.40;99.90;;;;;;4950271;28;20567;-56
2021/08/14 04:44:21;;;;;;;8.63;7.93;;;18.50;99.90;;;;;;4954261;28;20208;-56
2021/08/14 04:46:47;;;;;;;10.10;8.43;;;18.50;99.90;;;;;;4955633;28;20478;-56
2021/08/14 04:49:12;;;;;;;9.33;8.37;;;18.60;99.90;;;;;;4952481;28;20185;-57
2021/08/14 04:51:38;;;;;;;11.73;9.30;;;18.60;99.90;;;;;;4944411;28;20263;-56
2021/08/14 04:54:04;;;;;;;9.30;8.40;;;18.70;99.90;;;;;;4953836;28;20244;-56
2021/08/14 04:56:30;;;;;;;8.47;7.67;;;18.70;99.90;;;;;;4952496;28;20271;-56
2021/08/14 04:58:56;;;;;;;9.20;8.40;;;18.70;99.90;;;;;;4953916;28;20883;-56
2021/08/14 05:01:21;;;;;;;11.40;8.30;;;18.80;99.90;;;;;;4953612;28;20444;-56
2021/08/14 05:03:47;;;;;;;9.03;7.97;;;18.90;99.90;;;;;;4950338;28;20185;-57
2021/08/14 05:06:13;;;;;;;9.63;8.73;;;19.00;99.90;;;;;;4950846;28;20209;-56
2021/08/14 05:08:38;;;;;;;9.20;8.37;;;19.00;99.90;;;;;;4953785;28;20189;-57
2021/08/14 05:11:04;;;;;;;9.03;8.00;;;19.00;99.90;;;;;;4953264;28;20515;-56
2021/08/14 05:13:30;;;;;;;10.03;9.13;;;19.10;99.90;;;;;;4950235;29;20185;-56
2021/08/14 05:15:56;;;;;;;8.93;8.13;;;19.20;99.90;;;;;;4953281;28;20460;-56
2021/08/14 05:18:22;;;;;;;9.50;8.60;;;19.20;99.90;;;;;;4953816;28;20277;-56
2021/08/14 05:20:47;;;;;;;9.20;8.40;;;19.30;99.90;;;;;;4953101;28;20805;-56
2021/08/14 05:23:13;;;;;;;9.00;8.17;;;19.30;99.90;;;;;;4953142;28;20227;-56
2021/08/14 05:25:39;;;;;;;10.47;8.30;;;19.40;99.90;;;;;;4952827;28;20236;-56
2021/08/14 05:28:05;;;;;;;9.20;8.20;;;19.60;99.90;;;;;;4951487;28;20859;-57
2021/08/14 05:30:35;;;;;;;8.83;7.80;;;19.60;99.90;;;;;;4951011;28;20448;-57
2021/08/14 05:33:01;;;;;;;10.73;8.10;;;19.70;99.90;;;;;;4951833;29;20201;-57
2021/08/14 05:35:27;;;;;;;8.80;7.87;;;19.70;99.90;;;;;;4950422;28;20211;-56
2021/08/14 05:37:52;;;;;;;9.57;8.67;;;19.80;99.90;;;;;;4951177;28;20185;-56
2021/08/14 05:40:18;;;;;;;9.17;8.37;;;19.90;99.90;;;;;;4951183;28;20622;-56
2021/08/14 05:42:43;;;;;;;9.33;8.43;;;20.00;99.90;;;;;;4950407;28;20623;-56
2021/08/14 05:45:10;;;;;;;8.60;7.70;;;20.00;99.90;;;;;;4950943;28;20734;-57
2021/08/14 05:47:35;;;;;;;10.18;9.27;;;20.10;99.90;;;;;;4949094;28;20730;-56
2021/08/14 05:50:02;;;;;;;8.80;8.00;;;20.20;99.90;;;;;;4948588;29;20201;-57
2021/08/14 05:52:27;;;;;;;8.45;7.72;;;20.30;99.90;;;;;;4951410;28;20248;-57
2021/08/14 05:54:53;;;;;;;8.87;8.00;;;20.40;99.90;;;;;;4950324;28;20245;-56
2021/08/14 05:57:19;;;;;;;7.93;7.20;;;20.50;99.90;;;;;;4951116;28;20239;-56
2021/08/14 05:59:46;;;;;;;8.20;7.50;;;20.50;99.90;;;;;;4945371;29;20212;-54
2021/08/14 06:02:11;;;;;;;8.97;8.17;;;20.50;99.90;;;;;;4944969;28;20181;-56
2021/08/14 06:04:37;;;;;;;11.13;8.13;;;20.70;99.90;;;;;;4950661;28;20272;-56
2021/08/14 06:07:03;;;;;;;9.17;8.27;;;20.80;99.90;;;;;;4951938;28;20288;-56
2021/08/14 06:09:29;;;;;;;9.80;8.90;;;20.90;99.90;;;;;;4952480;28;20191;-56
2021/08/14 06:11:54;;;;;;;9.63;8.70;;;20.90;99.90;;;;;;4950580;28;20437;-56
2021/08/14 06:14:20;;;;;;;9.97;8.97;;;21.10;99.90;;;;;;4949675;28;20194;-57
2021/08/14 06:16:46;;;;;;;9.10;8.20;;;21.20;99.90;;;;;;4951449;28;20216;-57
2021/08/14 06:19:11;;;;;;;9.07;8.27;;;21.40;99.90;;;;;;4950619;28;20207;-57
2021/08/14 06:21:37;;;;;;;9.03;8.30;;;21.60;99.90;;;;;;4951536;28;20251;-57
2021/08/14 06:24:03;;;;;;;8.80;8.00;;;21.90;99.90;;;;;;4950746;29;20670;-57
2021/08/14 06:26:28;;;;;;;10.50;7.80;;;22.00;99.90;;;;;;4950377;28;20204;-57
2021/08/14 06:28:54;;;;;;;8.50;7.80;;;22.10;99.90;;;;;;4951118;28;21032;-57
2021/08/14 06:31:20;;;;;;;9.20;8.33;;;22.20;99.90;;;;;;4951169;28;20187;-57
2021/08/14 06:33:45;;;;;;;8.83;8.03;;;22.30;99.90;;;;;;4948369;28;20193;-56
2021/08/14 06:36:12;;;;;;;10.23;9.17;;;22.40;99.90;;;;;;4949575;28;20295;-57
2021/08/14 06:38:38;;;;;;;9.90;9.03;;;22.40;99.90;;;;;;4951192;28;20208;-57
2021/08/14 06:41:04;;;;;;;10.07;9.27;;;22.40;99.90;;;;;;4949058;28;20981;-57
2021/08/14 06:43:30;;;;;;;9.60;8.70;;;22.40;99.90;;;;;;4951198;28;20463;-57
2021/08/14 06:45:56;;;;;;;8.60;7.80;;;22.50;99.90;;;;;;4951758;28;20878;-56
2021/08/14 06:48:22;;;;;;;9.30;8.40;;;23.10;99.90;;;;;;4954024;28;20440;-60
2021/08/14 06:50:48;;;;;;;10.10;9.10;;;23.30;99.90;;;;;;4951139;28;20467;-60
2021/08/14 06:53:14;;;;;;;10.40;9.50;;;23.20;99.90;;;;;;4950231;28;20486;-60
2021/08/14 06:55:39;;;;;;;8.87;7.97;;;23.20;99.90;;;;;;4950590;28;20520;-60
2021/08/14 06:58:05;;;;;;;9.53;8.57;;;23.40;99.90;;;;;;4951131;28;20201;-60
2021/08/14 07:00:31;;;;;;;9.27;8.47;;;23.50;99.90;;;;;;4951147;28;20726;-59
2021/08/14 07:02:57;;;;;;;8.80;8.00;;;23.80;99.90;;;;;;4950105;28;20622;-60
2021/08/14 07:05:22;;;;;;;8.33;7.47;;;24.10;99.90;;;;;;4948599;28;20480;-59
2021/08/14 07:07:48;;;;;;;9.80;8.90;;;24.40;99.90;;;;;;4944616;28;20189;-59
2021/08/14 07:10:14;;;;;;;11.70;9.30;;;25.20;99.90;;;;;;4950992;28;20204;-60
2021/08/14 07:12:43;;;;;;;9.00;8.20;;;26.60;99.30;;;;;;4951604;28;20200;-60
2021/08/14 07:15:09;;;;;;;8.57;7.77;;;28.50;95.60;;;;;;4947622;28;20721;-60
2021/08/14 07:17:35;;;;;;;8.43;7.50;;;30.50;90.70;;;;;;4949902;29;20452;-60
2021/08/14 07:20:01;;;;;;;7.33;6.77;;;32.80;82.90;;;;;;4949661;28;20536;-60
2021/08/14 07:22:27;;;;;;;7.57;6.97;;;35.00;74.30;;;;;;4947849;28;20448;-60
2021/08/14 07:24:53;;;;;;;7.70;7.10;;;37.10;66.30;;;;;;4945806;28;21209;-60
2021/08/14 07:27:19;;;;;;;8.00;7.20;;;38.90;58.20;;;;;;4946795;28;20223;-60
2021/08/14 07:29:44;;;;;;;11.40;7.43;;;38.90;54.40;;;;;;4950964;28;20216;-60
2021/08/14 07:32:11;;;;;;;8.50;7.87;;;40.40;52.70;;;;;;4950388;28;20197;-60
2021/08/14 07:34:37;;;;;;;8.50;7.77;;;41.60;49.20;;;;;;4948589;28;20612;-60
2021/08/14 07:37:03;;;;;;;8.53;7.83;;;42.60;47.50;;;;;;4951147;28;20460;-60
2021/08/14 07:39:29;;;;;;;8.03;7.43;;;43.40;45.20;;;;;;4951319;28;20199;-60
2021/08/14 07:41:54;;;;;;;8.30;7.73;;;44.00;43.20;;;;;;4950731;28;20463;-60
2021/08/14 07:44:20;;;;;;;9.03;8.30;;;44.60;42.10;;;;;;4951127;28;20670;-61
2021/08/14 07:46:46;;;;;;;9.43;8.57;;;45.00;40.40;;;;;;4950627;28;20686;-60
2021/08/14 07:49:12;;;;;;;9.00;8.40;;;45.00;39.90;;;;;;4942200;29;20658;-60
2021/08/14 07:51:38;;;;;;;7.77;7.20;;;45.10;39.70;;;;;;4949907;28;20459;-60
2021/08/14 07:54:03;;;;;;;8.67;7.40;;;45.40;38.90;;;;;;4949615;28;20193;-60
2021/08/14 07:56:29;;;;;;;8.83;8.13;;;45.10;38.30;;;;;;4946166;28;20291;-60
2021/08/14 07:58:54;;;;;;;7.80;7.20;;;42.70;41.40;;;;;;4950277;28;20614;-60
2021/08/14 08:01:20;;;;;;;8.33;7.63;;;41.50;43.30;;;;;;4951260;28;20189;-60
2021/08/14 08:03:46;;;;;;;11.60;10.80;;;42.40;42.60;;;;;;4950164;28;20193;-60
2021/08/14 08:06:11;;;;;;;9.13;8.30;;;41.50;43.40;;;;;;4948261;29;20634;-60
2021/08/14 08:08:38;;;;;;;7.87;7.20;;;42.60;42.20;;;;;;4950744;28;20193;-61
2021/08/14 08:11:04;;;;;;;9.07;8.37;;;43.60;40.70;;;;;;4950651;28;20189;-61
2021/08/14 08:13:29;;;;;;;8.03;7.50;;;42.00;40.70;;;;;;4946326;28;20452;-60
2021/08/14 08:15:55;;;;;;;9.80;8.87;;;39.40;44.60;;;;;;4951140;28;20232;-60
2021/08/14 08:18:21;;;;;;;8.40;7.70;;;39.50;46.40;;;;;;4954056;28;20200;-60
2021/08/14 08:20:47;;;;;;;10.33;9.33;;;40.90;44.50;;;;;;4953673;28;20452;-59
2021/08/14 08:23:13;;;;;;;9.93;8.93;;;41.60;44.10;;;;;;4963495;28;20726;-60
2021/08/14 08:25:39;;;;;;;7.63;7.13;;;42.90;42.10;;;;;;4953111;28;20259;-59
2021/08/14 08:28:05;;;;;;;7.87;7.20;;;42.30;41.10;;;;;;4954225;28;20448;-59
2021/08/14 08:30:31;;;;;;;8.03;7.30;;;41.30;43.30;;;;;;4954202;28;20252;-59
2021/08/14 08:32:57;;;;;;;8.20;7.50;;;41.70;42.80;;;;;;4953549;28;20658;-58
2021/08/14 08:35:24;;;;;;;8.40;7.80;;;41.00;43.00;;;;;;4957074;28;20522;-59
2021/08/14 08:37:50;;;;;;;8.17;7.03;;;41.10;42.70;;;;;;4958687;28;20472;-59
2021/08/14 08:40:16;;;;;;;7.67;6.97;;;41.00;41.80;;;;;;4952968;28;20521;-59
2021/08/14 08:42:45;;;;;;;6.60;6.10;;;41.70;41.70;;;;;;4953492;28;20889;-59
2021/08/14 08:45:11;;;;;;;6.77;6.27;;;42.90;39.00;;;;;;4951721;29;20444;-59
2021/08/14 08:47:40;;;;;;;7.40;6.70;;;42.10;39.90;;;;;;4946303;28;20519;-59
2021/08/14 08:50:08;;;;;;;7.80;7.03;;;40.70;41.40;;;;;;4952443;28;20436;-59
2021/08/14 08:52:34;;;;;;;9.00;8.27;;;39.90;42.80;;;;;;4952633;28;20918;-59
2021/08/14 08:55:00;;;;;;;8.50;7.70;;;38.90;44.10;;;;;;4951057;29;20480;-58
2021/08/14 08:57:26;;;;;;;7.10;6.50;;;40.20;43.40;;;;;;4953210;28;20479;-58
2021/08/14 08:59:51;;;;;;;8.47;7.87;;;40.50;41.40;;;;;;4952450;29;20933;-59
2021/08/14 09:02:36;;;;;;;7.40;6.90;;;40.50;42.00;;;;;;4952679;28;20603;-58
2021/08/14 09:05:07;;;;;;;7.47;6.77;;;39.50;41.80;;;;;;4943896;29;20204;-59
2021/08/14 09:07:33;;;;;;;7.30;6.70;;;39.00;43.00;;;;;;4952293;28;20467;-59
2021/08/14 09:10:00;;;;;;;7.43;6.83;;;39.90;42.70;;;;;;4952098;28;20449;-59
2021/08/14 09:12:35;;;;;;;7.03;6.43;;;40.20;42.50;;;;;;4952145;28;20746;-59
2021/08/14 09:15:02;;;;;;;7.00;6.40;;;41.80;39.90;;;;;;4951581;29;20562;-59
2021/08/14 09:17:29;;;;;;;7.20;6.70;;;40.70;40.50;;;;;;4952309;28;20879;-59
2021/08/14 09:20:18;;;;;;;8.57;7.97;;;41.00;40.30;;;;;;4953568;28;20815;-59
2021/08/14 09:23:01;;;;;;;7.33;6.73;;;41.50;39.60;;;;;;4951614;28;20452;-59
2021/08/14 09:25:44;;;;;;;7.20;6.70;;;41.00;39.20;;;;;;4950882;29;20449;-60
2021/08/14 09:28:12;;;;;;;7.67;7.07;;;41.10;40.10;;;;;;4951163;28;20493;-59
2021/08/14 09:30:48;;;;;;;8.23;6.63;;;40.30;40.50;;;;;;4952572;28;20451;-59
2021/08/14 09:33:17;;;;;;;8.27;7.53;;;39.50;41.50;;;;;;4952429;29;20460;-59
2021/08/14 09:35:44;;;;;;;7.30;6.80;;;39.50;42.80;;;;;;4952456;29;20626;-59
2021/08/14 09:38:13;;;;;;;7.80;7.20;;;38.80;42.70;;;;;;4951411;28;20452;-59
2021/08/14 09:40:42;;;;;;;7.77;7.17;;;37.70;44.20;;;;;;4950713;28;20444;-58
2021/08/14 09:43:08;;;;;;;7.70;7.10;;;36.50;47.00;;;;;;4951796;28;20465;-58
2021/08/14 09:45:35;;;;;;;7.33;6.63;;;36.20;48.10;;;;;;4952471;28;20563;-58
2021/08/14 09:48:21;;;;;;;7.50;6.90;;;35.30;49.80;;;;;;4950917;28;20445;-58
2021/08/14 09:50:47;;;;;;;7.20;6.60;;;34.80;51.30;;;;;;4952303;28;20479;-58
2021/08/14 09:53:24;;;;;;;7.23;6.63;;;34.20;51.60;;;;;;4953326;28;20451;-58
2021/08/14 09:56:04;;;;;;;7.20;6.50;;;34.20;52.70;;;;;;4951283;29;20984;-58
2021/08/14 09:58:31;;;;;;;7.27;6.60;;;34.10;52.40;;;;;;4947779;29;20463;-57
2021/08/14 10:00:59;;;;;;;7.50;6.80;;;34.40;52.50;;;;;;4947832;29;20444;-58
2021/08/14 10:03:27;;;;;;;8.70;6.83;;;34.90;52.00;;;;;;4952190;28;20452;-58
2021/08/14 10:05:54;;;;;;;10.73;7.30;;;35.70;50.40;;;;;;4951270;28;20468;-58
2021/08/14 10:08:21;;;;;;;6.83;6.23;;;36.20;49.10;;;;;;4952468;28;20436;-59
2021/08/14 10:10:47;;;;;;;8.10;7.30;;;36.00;49.10;;;;;;4951852;28;20448;-58
2021/08/14 10:13:13;;;;;;;7.87;6.80;;;35.70;50.60;;;;;;4952035;28;20452;-59
2021/08/14 10:15:39;;;;;;;7.43;6.73;;;34.80;51.30;;;;;;4950515;28;20494;-58
2021/08/14 10:18:05;;;;;;;8.23;7.53;;;34.00;52.90;;;;;;4950473;28;20452;-58
2021/08/14 10:20:32;;;;;;;8.63;6.90;;;33.40;53.90;;;;;;4951969;28;20184;-59
2021/08/14 10:23:22;;;;;;;8.40;7.70;;;33.10;54.50;;;;;;4951884;28;20436;-59
2021/08/14 10:25:56;;;;;;;8.57;7.80;;;32.70;56.60;;;;;;4948346;28;20468;-58
2021/08/14 10:28:48;;;;;;;8.60;7.80;;;32.60;56.70;;;;;;4948242;29;20451;-58
2021/08/14 10:31:32;;;;;;;9.47;8.60;;;32.50;57.00;;;;;;4951114;28;20455;-57
2021/08/14 10:34:10;;;;;;;9.47;8.43;;;32.20;58.20;;;;;;4950712;28;20495;-58
2021/08/14 10:36:37;;;;;;;7.73;7.10;;;31.70;58.60;;;;;;4947844;28;21265;-59
2021/08/14 10:39:21;;;;;;;8.30;7.60;;;31.60;59.20;;;;;;4949571;28;20446;-58
2021/08/14 10:41:50;;;;;;;8.50;7.77;;;31.30;59.60;;;;;;4953365;28;20459;-58
2021/08/14 10:44:42;;;;;;;7.80;7.10;;;31.30;60.00;;;;;;4950998;28;20441;-58
2021/08/14 10:47:32;;;;;;;7.03;6.53;;;31.50;59.40;;;;;;4948190;28;20464;-58
2021/08/14 10:49:59;;;;;;;7.93;7.23;;;31.50;59.20;;;;;;4947950;28;20438;-58
2021/08/14 10:52:36;;;;;;;9.87;7.93;;;31.50;59.50;;;;;;4950545;28;20516;-59
2021/08/14 10:55:03;;;;;;;10.20;9.20;;;31.40;60.00;;;;;;4947564;29;20465;-57
2021/08/14 10:57:47;;;;;;;8.23;7.53;;;31.40;60.80;;;;;;4950608;28;20465;-58
2021/08/14 11:00:25;;;;;;;9.43;7.67;;;31.60;59.80;;;;;;4951242;28;20450;-58
2021/08/14 11:02:59;;;;;;;8.60;7.80;;;31.70;59.30;;;;;;4949777;28;20436;-57
2021/08/14 11:05:26;;;;;;;7.50;6.90;;;31.60;59.00;;;;;;4946676;29;20519;-58
2021/08/14 11:07:53;;;;;;;7.63;6.93;;;31.80;59.20;;;;;;4951165;28;20551;-60
2021/08/14 11:10:40;;;;;;;7.97;7.27;;;31.70;59.10;;;;;;4949729;28;20446;-59
2021/08/14 11:13:31;;;;;;;8.10;7.40;;;31.80;59.80;;;;;;4951092;28;20442;-60
2021/08/14 11:15:59;;;;;;;8.53;7.83;;;31.70;59.00;;;;;;4948342;29;20550;-59
2021/08/14 11:18:54;;;;;;;8.43;7.63;;;31.80;59.50;;;;;;4950168;28;20450;-59
2021/08/14 11:21:40;;;;;;;7.37;6.77;;;31.80;59.50;;;;;;4944552;29;20445;-59
2021/08/14 11:24:06;;;;;;;8.90;8.10;;;31.80;59.00;;;;;;4949958;29;20462;-59
2021/08/14 11:26:39;;;;;;;8.10;7.37;;;31.50;59.90;;;;;;4949852;28;20498;-58
2021/08/14 11:29:07;;;;;;;8.17;7.50;;;31.50;60.00;;;;;;4947577;28;20273;-59
2021/08/14 11:31:32;;;;;;;8.43;7.70;;;31.50;59.90;;;;;;4946428;28;20464;-59
2021/08/14 11:34:11;;;;;;;8.43;7.63;;;31.30;60.40;;;;;;4950589;28;20447;-59
2021/08/14 11:36:37;;;;;;;8.73;7.83;;;31.10;61.00;;;;;;4947492;29;20240;-60
2021/08/14 11:39:02;;;;;;;10.30;7.43;;;31.10;61.50;;;;;;4945117;28;20504;-59
2021/08/14 11:41:28;;;;;;;8.43;7.67;;;31.30;62.30;;;;;;4949132;28;20478;-59
2021/08/14 11:44:03;;;;;;;7.83;7.10;;;31.40;61.80;;;;;;4950504;28;20620;-59
2021/08/14 11:46:29;;;;;;;12.80;11.90;;;31.60;61.90;;;;;;4944690;29;20206;-59
2021/08/14 11:48:58;;;;;;;8.53;7.73;;;31.90;61.40;;;;;;4949757;28;20440;-59
2021/08/14 11:51:25;;;;;;;8.93;7.80;;;32.10;61.40;;;;;;4953746;28;20486;-58
2021/08/14 11:54:07;;;;;;;8.70;7.90;;;32.30;60.40;;;;;;4954759;28;20459;-59
2021/08/14 11:56:34;;;;;;;8.67;7.87;;;32.60;59.90;;;;;;4953437;29;20527;-60
2021/08/14 11:59:00;;;;;;;9.17;8.00;;;32.60;59.50;;;;;;4953540;29;20428;-58
2021/08/14 12:01:25;;;;;;;9.73;8.93;;;33.00;58.80;;;;;;4948177;29;20440;-59
2021/08/14 12:03:59;;;;;;;9.50;8.70;;;33.10;59.10;;;;;;4953691;28;20438;-59
2021/08/14 12:06:33;;;;;;;10.77;8.77;;;33.40;58.50;;;;;;4954606;28;20686;-58
2021/08/14 12:09:01;;;;;;;8.70;7.90;;;33.50;58.20;;;;;;4954290;28;20482;-59
2021/08/14 12:11:28;;;;;;;8.30;7.60;;;33.50;57.50;;;;;;4953217;28;20444;-58
2021/08/14 12:14:20;;;;;;;9.60;8.77;;;33.30;57.60;;;;;;4952208;28;20756;-58
2021/08/14 12:17:00;;;;;;;8.47;7.50;;;33.00;57.80;;;;;;4952769;29;20479;-60
2021/08/14 12:19:26;;;;;;;8.90;8.10;;;33.10;58.40;;;;;;4951733;28;20526;-58
2021/08/14 12:22:08;;;;;;;9.13;7.40;;;33.00;58.20;;;;;;4954575;28;20476;-60
2021/08/14 12:24:33;;;;;;;8.90;8.00;;;33.00;58.60;;;;;;4953518;28;20539;-59
2021/08/14 12:26:59;;;;;;;8.90;8.10;;;33.20;58.50;;;;;;4954294;28;20554;-59
2021/08/14 12:29:25;;;;;;;8.97;8.30;;;33.20;58.20;;;;;;4952098;28;20189;-59
2021/08/14 12:31:56;;;;;;;8.17;7.50;;;32.60;59.10;;;;;;4954320;28;20185;-59
2021/08/14 12:34:26;;;;;;;9.00;8.20;;;32.90;59.20;;;;;;4953071;28;20272;-59
2021/08/14 12:37:12;;;;;;;8.70;7.90;;;33.00;58.80;;;;;;4949444;29;20515;-59
2021/08/14 12:39:56;;;;;;;9.40;8.60;;;33.10;58.80;;;;;;4952939;29;20862;-59
2021/08/14 12:42:22;;;;;;;9.20;8.30;;;33.00;58.10;;;;;;4951826;28;20456;-59
2021/08/14 12:44:49;;;;;;;9.17;8.37;;;32.70;58.70;;;;;;4953443;28;20800;-59
2021/08/14 12:47:24;;;;;;;9.30;8.50;;;32.50;59.40;;;;;;4951889;28;20220;-59
2021/08/14 12:50:12;;;;;;;8.83;8.03;;;32.40;59.40;;;;;;4947124;29;20454;-61